sensor_id;sensor_type;location;lat;lon;timestamp;pressure;altitude;pressure_sealevel;temperature;humidity
63395;BME280;49531;-34.520;150.798;2023-04-29T00:01:24;100203.13;;;21.91;64.06
63395;BME280;49531;-34.520;150.798;2023-04-29T00:03:52;100184.22;;;21.71;63.68
63395;BME280;49531;-34.520;150.798;2023-04-29T00:06:19;100213.47;;;21.89;62.80
63395;BME280;49531;-34.520;150.798;2023-04-29T00:08:47;100200.97;;;21.88;62.32
63395;BME280;49531;-34.520;150.798;2023-04-29T00:11:15;100207.44;;;21.98;61.75
63395;BME280;49531;-34.520;150.798;2023-04-29T00:13:42;100205.56;;;21.93;61.54
63395;BME280;49531;-34.520;150.798;2023-04-29T00:16:09;100222.66;;;21.99;61.25
63395;BME280;49531;-34.520;150.798;2023-04-29T00:18:37;100215.00;;;22.01;60.95
63395;BME280;49531;-34.520;150.798;2023-04-29T00:21:04;100209.56;;;22.01;60.59
63395;BME280;49531;-34.520;150.798;2023-04-29T00:23:32;100216.66;;;22.02;60.39
63395;BME280;49531;-34.520;150.798;2023-04-29T00:26:00;100205.47;;;22.08;60.09
63395;BME280;49531;-34.520;150.798;2023-04-29T00:28:27;100209.28;;;22.07;60.33
63395;BME280;49531;-34.520;150.798;2023-04-29T00:30:54;100187.81;;;22.01;59.89
63395;BME280;49531;-34.520;150.798;2023-04-29T00:33:21;100161.81;;;21.89;59.76
63395;BME280;49531;-34.520;150.798;2023-04-29T00:35:49;100195.69;;;22.07;59.58
63395;BME280;49531;-34.520;150.798;2023-04-29T00:38:16;100203.00;;;22.12;59.67
63395;BME280;49531;-34.520;150.798;2023-04-29T00:40:44;100188.34;;;22.08;59.39
63395;BME280;49531;-34.520;150.798;2023-04-29T00:43:11;100194.34;;;22.05;59.53
63395;BME280;49531;-34.520;150.798;2023-04-29T00:45:38;100197.88;;;22.00;59.70
63395;BME280;49531;-34.520;150.798;2023-04-29T00:48:05;100202.75;;;22.08;59.58
63395;BME280;49531;-34.520;150.798;2023-04-29T00:50:33;100193.22;;;22.11;59.12
63395;BME280;49531;-34.520;150.798;2023-04-29T00:53:01;100197.00;;;22.15;59.35
63395;BME280;49531;-34.520;150.798;2023-04-29T00:55:29;100204.31;;;22.19;59.04
63395;BME280;49531;-34.520;150.798;2023-04-29T00:57:58;100188.88;;;22.10;58.98
63395;BME280;49531;-34.520;150.798;2023-04-29T01:00:26;100190.78;;;22.09;59.31
63395;BME280;49531;-34.520;150.798;2023-04-29T01:02:54;100201.34;;;22.16;59.26
63395;BME280;49531;-34.520;150.798;2023-04-29T01:05:23;100181.78;;;22.14;59.40
63395;BME280;49531;-34.520;150.798;2023-04-29T01:10:52;100163.06;;;22.07;58.97
63395;BME280;49531;-34.520;150.798;2023-04-29T01:13:34;100172.53;;;22.15;59.17
63395;BME280;49531;-34.520;150.798;2023-04-29T01:16:10;100168.19;;;22.14;59.17
63395;BME280;49531;-34.520;150.798;2023-04-29T01:18:47;100174.97;;;22.16;59.05
63395;BME280;49531;-34.520;150.798;2023-04-29T01:21:16;100153.53;;;22.10;59.25
63395;BME280;49531;-34.520;150.798;2023-04-29T01:23:45;100155.66;;;22.13;59.45
63395;BME280;49531;-34.520;150.798;2023-04-29T01:26:12;100132.63;;;22.00;59.50
63395;BME280;49531;-34.520;150.798;2023-04-29T01:28:54;100148.09;;;22.10;59.36
63395;BME280;49531;-34.520;150.798;2023-04-29T01:31:30;100120.94;;;22.00;59.31
63395;BME280;49531;-34.520;150.798;2023-04-29T01:34:09;100138.78;;;22.16;59.46
63395;BME280;49531;-34.520;150.798;2023-04-29T01:37:04;100151.81;;;22.19;59.31
63395;BME280;49531;-34.520;150.798;2023-04-29T01:39:45;100146.94;;;22.16;59.26
63395;BME280;49531;-34.520;150.798;2023-04-29T01:42:29;100129.56;;;22.12;59.47
63395;BME280;49531;-34.520;150.798;2023-04-29T01:45:02;100138.78;;;22.16;59.43
63395;BME280;49531;-34.520;150.798;2023-04-29T01:47:31;100129.56;;;22.12;59.81
63395;BME280;49531;-34.520;150.798;2023-04-29T01:50:02;100135.56;;;22.09;60.30
63395;BME280;49531;-34.520;150.798;2023-04-29T01:52:29;100118.47;;;22.03;59.93
63395;BME280;49531;-34.520;150.798;2023-04-29T01:54:57;100107.94;;;21.96;59.88
63395;BME280;49531;-34.520;150.798;2023-04-29T01:57:24;100117.91;;;22.06;59.72
63395;BME280;49531;-34.520;150.798;2023-04-29T01:59:52;100106.25;;;22.01;59.75
63395;BME280;49531;-34.520;150.798;2023-04-29T02:02:19;100121.44;;;22.07;59.94
63395;BME280;49531;-34.520;150.798;2023-04-29T02:04:48;100121.50;;;22.02;59.90
63395;BME280;49531;-34.520;150.798;2023-04-29T02:07:16;100120.88;;;22.10;60.01
63395;BME280;49531;-34.520;150.798;2023-04-29T02:09:43;100121.97;;;22.09;60.21
63395;BME280;49531;-34.520;150.798;2023-04-29T02:12:11;100090.84;;;21.91;59.89
63395;BME280;49531;-34.520;150.798;2023-04-29T02:14:38;100106.78;;;22.03;60.30
63395;BME280;49531;-34.520;150.798;2023-04-29T02:17:05;100108.91;;;22.11;60.04
63395;BME280;49531;-34.520;150.798;2023-04-29T02:19:32;100104.56;;;22.10;59.74
63395;BME280;49531;-34.520;150.798;2023-04-29T02:21:59;100094.91;;;21.93;59.92
63395;BME280;49531;-34.520;150.798;2023-04-29T02:24:26;100105.94;;;22.07;60.14
63395;BME280;49531;-34.520;150.798;2023-04-29T02:26:54;100089.72;;;21.97;59.93
63395;BME280;49531;-34.520;150.798;2023-04-29T02:29:21;100102.41;;;22.07;60.15
63395;BME280;49531;-34.520;150.798;2023-04-29T02:31:48;100105.69;;;22.04;60.00
63395;BME280;49531;-34.520;150.798;2023-04-29T02:34:16;100097.53;;;22.04;60.22
63395;BME280;49531;-34.520;150.798;2023-04-29T02:36:43;100100.50;;;22.07;60.09
63395;BME280;49531;-34.520;150.798;2023-04-29T02:39:10;100106.19;;;22.11;59.76
63395;BME280;49531;-34.520;150.798;2023-04-29T02:41:37;100108.38;;;22.09;59.90
63395;BME280;49531;-34.520;150.798;2023-04-29T02:44:04;100108.91;;;22.11;60.18
63395;BME280;49531;-34.520;150.798;2023-04-29T02:46:31;100086.38;;;22.00;60.13
63395;BME280;49531;-34.520;150.798;2023-04-29T02:49:00;100092.16;;;21.99;60.55
63395;BME280;49531;-34.520;150.798;2023-04-29T02:51:29;100104.56;;;22.10;60.65
63395;BME280;49531;-34.520;150.798;2023-04-29T02:53:56;100096.13;;;22.11;60.63
63395;BME280;49531;-34.520;150.798;2023-04-29T02:56:24;100084.19;;;22.07;60.44
63395;BME280;49531;-34.520;150.798;2023-04-29T02:58:51;100088.19;;;22.15;60.17
63395;BME280;49531;-34.520;150.798;2023-04-29T03:01:19;100077.59;;;22.13;60.09
63395;BME280;49531;-34.520;150.798;2023-04-29T03:03:47;100082.75;;;22.15;60.16
63395;BME280;49531;-34.520;150.798;2023-04-29T03:06:14;100079.41;;;22.23;60.14
63395;BME280;49531;-34.520;150.798;2023-04-29T03:08:41;100084.00;;;22.27;59.83
63395;BME280;49531;-34.520;150.798;2023-04-29T03:11:09;100065.34;;;22.16;59.87
63395;BME280;49531;-34.520;150.798;2023-04-29T03:13:36;100073.47;;;22.21;59.98
63395;BME280;49531;-34.520;150.798;2023-04-29T03:16:04;100067.50;;;22.19;59.94
63395;BME280;49531;-34.520;150.798;2023-04-29T03:18:32;100061.53;;;22.17;59.86
63395;BME280;49531;-34.520;150.798;2023-04-29T03:20:59;100063.09;;;22.23;59.93
63395;BME280;49531;-34.520;150.798;2023-04-29T03:23:26;100064.19;;;22.22;60.10
63395;BME280;49531;-34.520;150.798;2023-04-29T03:25:53;100064.19;;;22.22;61.50
63395;BME280;49531;-34.520;150.798;2023-04-29T03:28:21;100070.31;;;22.09;64.47
63395;BME280;49531;-34.520;150.798;2023-04-29T03:30:49;100051.03;;;22.00;64.85
63395;BME280;49531;-34.520;150.798;2023-04-29T03:33:17;100055.97;;;21.98;65.21
63395;BME280;49531;-34.520;150.798;2023-04-29T03:35:44;100056.78;;;21.99;65.24
63395;BME280;49531;-34.520;150.798;2023-04-29T03:38:11;100049.25;;;21.90;65.62
63395;BME280;49531;-34.520;150.798;2023-04-29T03:40:38;100047.91;;;21.88;66.48
63395;BME280;49531;-34.520;150.798;2023-04-29T03:43:05;100059.31;;;21.90;66.86
63395;BME280;49531;-34.520;150.798;2023-04-29T03:45:34;100068.88;;;21.82;66.58
63395;BME280;49531;-34.520;150.798;2023-04-29T03:48:02;100063.41;;;21.87;66.59
63395;BME280;49531;-34.520;150.798;2023-04-29T03:50:30;100057.50;;;21.80;66.22
63395;BME280;49531;-34.520;150.798;2023-04-29T03:52:57;100053.91;;;21.85;66.34
63395;BME280;49531;-34.520;150.798;2023-04-29T03:55:24;100051.47;;;21.83;66.70
63395;BME280;49531;-34.520;150.798;2023-04-29T03:57:51;100047.19;;;21.77;66.68
63395;BME280;49531;-34.520;150.798;2023-04-29T04:00:19;100027.81;;;21.55;67.02
63395;BME280;49531;-34.520;150.798;2023-04-29T04:02:47;100037.59;;;21.56;66.82
63395;BME280;49531;-34.520;150.798;2023-04-29T04:05:14;100048.91;;;21.63;67.34
63395;BME280;49531;-34.520;150.798;2023-04-29T04:07:41;100032.69;;;21.58;66.76
63395;BME280;49531;-34.520;150.798;2023-04-29T04:10:09;100033.50;;;21.58;66.79
63395;BME280;49531;-34.520;150.798;2023-04-29T04:12:36;100043.34;;;21.49;66.89
63395;BME280;49531;-34.520;150.798;2023-04-29T04:15:04;100036.88;;;21.40;67.04
63395;BME280;49531;-34.520;150.798;2023-04-29T04:17:31;100046.13;;;21.39;67.30
63395;BME280;49531;-34.520;150.798;2023-04-29T04:19:58;100051.28;;;21.41;66.88
63395;BME280;49531;-34.520;150.798;2023-04-29T04:22:25;100044.75;;;21.42;66.70
63395;BME280;49531;-34.520;150.798;2023-04-29T04:24:54;100041.28;;;21.31;66.75
63395;BME280;49531;-34.520;150.798;2023-04-29T04:27:22;100034.00;;;21.21;66.62
63395;BME280;49531;-34.520;150.798;2023-04-29T04:29:53;100042.94;;;21.27;66.53
63395;BME280;49531;-34.520;150.798;2023-04-29T04:32:21;100045.72;;;21.17;66.97
63395;BME280;49531;-34.520;150.798;2023-04-29T04:34:49;100040.28;;;21.17;66.90
63395;BME280;49531;-34.520;150.798;2023-04-29T04:37:17;100031.38;;;21.06;67.04
63395;BME280;49531;-34.520;150.798;2023-04-29T04:39:44;100044.91;;;21.16;67.04
63395;BME280;49531;-34.520;150.798;2023-04-29T04:42:11;100031.06;;;21.13;66.81
63395;BME280;49531;-34.520;150.798;2023-04-29T04:44:38;100048.13;;;21.23;67.12
63395;BME280;49531;-34.520;150.798;2023-04-29T04:47:06;100056.00;;;21.25;67.25
63395;BME280;49531;-34.520;150.798;2023-04-29T04:49:33;100056.56;;;21.17;67.16
63395;BME280;49531;-34.520;150.798;2023-04-29T04:52:00;100056.81;;;21.25;67.02
63395;BME280;49531;-34.520;150.798;2023-04-29T04:54:27;100062.22;;;21.25;67.06
63395;BME280;49531;-34.520;150.798;2023-04-29T04:56:54;100066.59;;;21.21;67.03
63395;BME280;49531;-34.520;150.798;2023-04-29T04:59:21;100077.47;;;21.21;66.89
63395;BME280;49531;-34.520;150.798;2023-04-29T05:01:48;100080.16;;;21.26;66.97
63395;BME280;49531;-34.520;150.798;2023-04-29T05:04:16;100077.91;;;21.39;67.08
63395;BME280;49531;-34.520;150.798;2023-04-29T05:06:43;100047.00;;;21.29;66.51
63395;BME280;49531;-34.520;150.798;2023-04-29T05:09:12;100064.06;;;21.40;66.99
63395;BME280;49531;-34.520;150.798;2023-04-29T05:11:39;100050.00;;;21.28;67.17
63395;BME280;49531;-34.520;150.798;2023-04-29T05:14:07;100064.41;;;21.23;67.18
63395;BME280;49531;-34.520;150.798;2023-04-29T05:16:34;100049.63;;;21.45;67.01
63395;BME280;49531;-34.520;150.798;2023-04-29T05:19:01;100040.69;;;21.39;67.06
63395;BME280;49531;-34.520;150.798;2023-04-29T05:21:28;100038.19;;;21.48;67.10
63395;BME280;49531;-34.520;150.798;2023-04-29T05:23:56;100049.56;;;21.55;66.71
63395;BME280;49531;-34.520;150.798;2023-04-29T05:26:24;100045.75;;;21.56;67.21
63395;BME280;49531;-34.520;150.798;2023-04-29T05:28:51;100039.00;;;21.48;67.56
63395;BME280;49531;-34.520;150.798;2023-04-29T05:31:18;100040.63;;;21.49;67.00
63395;BME280;49531;-34.520;150.798;2023-04-29T05:33:45;100040.97;;;21.38;67.54
63395;BME280;49531;-34.520;150.798;2023-04-29T05:36:13;100050.75;;;21.39;67.50
63395;BME280;49531;-34.520;150.798;2023-04-29T05:38:41;100057.81;;;21.40;67.11
63395;BME280;49531;-34.520;150.798;2023-04-29T05:41:10;100035.97;;;21.11;67.28
63395;BME280;49531;-34.520;150.798;2023-04-29T05:43:39;100048.97;;;21.19;67.35
63395;BME280;49531;-34.520;150.798;2023-04-29T05:46:06;100047.66;;;21.06;67.51
63395;BME280;49531;-34.520;150.798;2023-04-29T05:48:33;100039.28;;;20.97;67.32
63395;BME280;49531;-34.520;150.798;2023-04-29T05:51:01;100049.31;;;21.02;67.40
63395;BME280;49531;-34.520;150.798;2023-04-29T05:53:28;100048.78;;;21.00;67.38
63395;BME280;49531;-34.520;150.798;2023-04-29T05:55:55;100050.41;;;21.01;67.25
63395;BME280;49531;-34.520;150.798;2023-04-29T05:58:22;100046.09;;;20.95;66.98
63395;BME280;49531;-34.520;150.798;2023-04-29T06:00:51;100042.22;;;21.11;66.59
63395;BME280;49531;-34.520;150.798;2023-04-29T06:03:18;100062.03;;;21.12;66.77
63395;BME280;49531;-34.520;150.798;2023-04-29T06:05:45;100056.63;;;21.07;66.83
63395;BME280;49531;-34.520;150.798;2023-04-29T06:08:13;100032.84;;;20.83;67.29
63395;BME280;49531;-34.520;150.798;2023-04-29T06:10:40;100070.25;;;20.96;67.41
63395;BME280;49531;-34.520;150.798;2023-04-29T06:13:08;100076.19;;;21.04;67.44
63395;BME280;49531;-34.520;150.798;2023-04-29T06:15:35;100077.03;;;20.99;67.37
63395;BME280;49531;-34.520;150.798;2023-04-29T06:18:03;100097.59;;;21.15;67.12
63395;BME280;49531;-34.520;150.798;2023-04-29T06:20:30;100090.03;;;21.07;66.83
63395;BME280;49531;-34.520;150.798;2023-04-29T06:22:57;100095.44;;;21.12;66.79
63395;BME280;49531;-34.520;150.798;2023-04-29T06:25:24;100109.03;;;21.07;67.06
63395;BME280;49531;-34.520;150.798;2023-04-29T06:27:51;100104.44;;;20.97;67.29
63395;BME280;49531;-34.520;150.798;2023-04-29T06:30:19;100106.66;;;20.90;67.26
63395;BME280;49531;-34.520;150.798;2023-04-29T06:32:46;100106.38;;;20.92;67.23
63395;BME280;49531;-34.520;150.798;2023-04-29T06:35:13;100118.66;;;20.79;67.18
63395;BME280;49531;-34.520;150.798;2023-04-29T06:37:40;100109.72;;;20.69;67.22
63395;BME280;49531;-34.520;150.798;2023-04-29T06:40:08;100118.41;;;20.76;67.16
63395;BME280;49531;-34.520;150.798;2023-04-29T06:42:36;100106.19;;;20.68;67.06
63395;BME280;49531;-34.520;150.798;2023-04-29T06:45:04;100124.88;;;20.80;67.01
63395;BME280;49531;-34.520;150.798;2023-04-29T06:47:31;100097.56;;;20.56;66.80
63395;BME280;49531;-34.520;150.798;2023-04-29T06:49:58;100123.84;;;20.71;66.54
63395;BME280;49531;-34.520;150.798;2023-04-29T06:52:26;100120.03;;;20.67;66.55
63395;BME280;49531;-34.520;150.798;2023-04-29T06:54:53;100113.81;;;20.66;66.52
63395;BME280;49531;-34.520;150.798;2023-04-29T06:57:20;100104.31;;;20.63;66.44
63395;BME280;49531;-34.520;150.798;2023-04-29T06:59:47;100124.41;;;20.62;66.96
63395;BME280;49531;-34.520;150.798;2023-04-29T07:02:14;100122.22;;;20.64;66.77
63395;BME280;49531;-34.520;150.798;2023-04-29T07:04:41;100115.72;;;20.55;66.90
63395;BME280;49531;-34.520;150.798;2023-04-29T07:07:08;100123.03;;;20.60;66.80
63395;BME280;49531;-34.520;150.798;2023-04-29T07:09:36;100115.19;;;20.53;66.72
63395;BME280;49531;-34.520;150.798;2023-04-29T07:12:04;100119.25;;;20.56;66.91
63395;BME280;49531;-34.520;150.798;2023-04-29T07:14:31;100109.25;;;20.41;66.96
63395;BME280;49531;-34.520;150.798;2023-04-29T07:16:59;100114.16;;;20.39;66.78
63395;BME280;49531;-34.520;150.798;2023-04-29T07:19:26;100114.38;;;20.43;66.81
63395;BME280;49531;-34.520;150.798;2023-04-29T07:21:54;100082.41;;;20.19;67.07
63395;BME280;49531;-34.520;150.798;2023-04-29T07:24:21;100105.44;;;20.42;67.09
63395;BME280;49531;-34.520;150.798;2023-04-29T07:26:49;100121.97;;;20.46;66.55
63395;BME280;49531;-34.520;150.798;2023-04-29T07:29:16;100132.81;;;20.56;66.20
63395;BME280;49531;-34.520;150.798;2023-04-29T07:31:43;100130.38;;;20.44;66.36
63395;BME280;49531;-34.520;150.798;2023-04-29T07:34:11;100149.66;;;20.48;65.79
63395;BME280;49531;-34.520;150.798;2023-04-29T07:36:38;100126.88;;;20.34;65.44
63395;BME280;49531;-34.520;150.798;2023-04-29T07:39:05;100136.09;;;20.27;65.63
63395;BME280;49531;-34.520;150.798;2023-04-29T07:41:33;100124.44;;;20.12;65.85
63395;BME280;49531;-34.520;150.798;2023-04-29T07:44:01;100135.00;;;20.13;65.79
63395;BME280;49531;-34.520;150.798;2023-04-29T07:46:28;100116.31;;;20.07;65.83
63395;BME280;49531;-34.520;150.798;2023-04-29T07:48:56;100135.81;;;20.24;65.65
63395;BME280;49531;-34.520;150.798;2023-04-29T07:51:23;100146.13;;;20.32;65.40
63395;BME280;49531;-34.520;150.798;2023-04-29T07:53:54;100155.13;;;20.38;65.32
63395;BME280;49531;-34.520;150.798;2023-04-29T07:56:21;100149.66;;;20.43;65.20
63395;BME280;49531;-34.520;150.798;2023-04-29T07:58:48;100131.22;;;20.40;65.02
63395;BME280;49531;-34.520;150.798;2023-04-29T08:01:15;100137.16;;;20.47;64.99
63395;BME280;49531;-34.520;150.798;2023-04-29T08:03:43;100123.34;;;20.43;64.91
63395;BME280;49531;-34.520;150.798;2023-04-29T08:06:10;100135.28;;;20.47;64.87
63395;BME280;49531;-34.520;150.798;2023-04-29T08:08:38;100151.53;;;20.52;64.82
63395;BME280;49531;-34.520;150.798;2023-04-29T08:11:05;100138.53;;;20.54;64.87
63395;BME280;49531;-34.520;150.798;2023-04-29T08:13:33;100133.91;;;20.55;64.67
63395;BME280;49531;-34.520;150.798;2023-04-29T08:16:00;100136.88;;;20.58;64.60
63395;BME280;49531;-34.520;150.798;2023-04-29T08:18:27;100129.28;;;20.50;64.51
63395;BME280;49531;-34.520;150.798;2023-04-29T08:20:55;100138.78;;;20.53;64.59
63395;BME280;49531;-34.520;150.798;2023-04-29T08:23:22;100160.22;;;20.59;64.47
63395;BME280;49531;-34.520;150.798;2023-04-29T08:25:49;100164.00;;;20.63;64.27
63395;BME280;49531;-34.520;150.798;2023-04-29T08:28:17;100177.03;;;20.61;64.36
63395;BME280;49531;-34.520;150.798;2023-04-29T08:30:44;100183.56;;;20.60;64.20
63395;BME280;49531;-34.520;150.798;2023-04-29T08:33:12;100167.53;;;20.64;64.02
63395;BME280;49531;-34.520;150.798;2023-04-29T08:35:40;100153.69;;;20.66;64.01
63395;BME280;49531;-34.520;150.798;2023-04-29T08:38:08;100133.06;;;20.64;64.15
63395;BME280;49531;-34.520;150.798;2023-04-29T08:40:42;100127.38;;;20.61;63.85
63395;BME280;49531;-34.520;150.798;2023-04-29T08:43:13;100134.72;;;20.60;63.79
63395;BME280;49531;-34.520;150.798;2023-04-29T08:45:43;100152.06;;;20.70;63.69
63395;BME280;49531;-34.520;150.798;2023-04-29T08:48:11;100157.47;;;20.75;63.62
63395;BME280;49531;-34.520;150.798;2023-04-29T08:50:39;100168.59;;;20.73;63.80
63395;BME280;49531;-34.520;150.798;2023-04-29T08:53:08;100159.13;;;20.71;63.73
63395;BME280;49531;-34.520;150.798;2023-04-29T08:55:41;100167.00;;;20.67;63.80
63395;BME280;49531;-34.520;150.798;2023-04-29T08:58:09;100156.69;;;20.69;63.69
63395;BME280;49531;-34.520;150.798;2023-04-29T09:00:38;100156.13;;;20.67;63.66
63395;BME280;49531;-34.520;150.798;2023-04-29T09:03:21;100152.06;;;20.64;63.50
63395;BME280;49531;-34.520;150.798;2023-04-29T09:05:53;100164.53;;;20.71;63.61
63395;BME280;49531;-34.520;150.798;2023-04-29T09:08:22;100158.31;;;20.70;63.57
63395;BME280;49531;-34.520;150.798;2023-04-29T09:10:51;100152.63;;;20.61;63.57
63395;BME280;49531;-34.520;150.798;2023-04-29T09:13:27;100154.53;;;20.61;63.63
63395;BME280;49531;-34.520;150.798;2023-04-29T09:15:55;100162.94;;;20.64;63.75
63395;BME280;49531;-34.520;150.798;2023-04-29T09:18:45;100159.13;;;20.60;63.71
63395;BME280;49531;-34.520;150.798;2023-04-29T09:21:16;100152.06;;;20.64;63.38
63395;BME280;49531;-34.520;150.798;2023-04-29T09:23:44;100147.47;;;20.65;63.57
63395;BME280;49531;-34.520;150.798;2023-04-29T09:26:12;100150.44;;;20.63;63.48
63395;BME280;49531;-34.520;150.798;2023-04-29T09:28:39;100148.56;;;20.54;63.42
63395;BME280;49531;-34.520;150.798;2023-04-29T09:31:10;100165.91;;;20.63;63.31
63395;BME280;49531;-34.520;150.798;2023-04-29T09:33:50;100156.41;;;20.60;63.26
63395;BME280;49531;-34.520;150.798;2023-04-29T09:36:47;100162.66;;;20.66;63.18
63395;BME280;49531;-34.520;150.798;2023-04-29T09:39:18;100159.66;;;20.68;63.01
63395;BME280;49531;-34.520;150.798;2023-04-29T09:42:00;100150.44;;;20.69;62.74
63395;BME280;49531;-34.520;150.798;2023-04-29T09:44:32;100161.81;;;20.76;62.73
63395;BME280;49531;-34.520;150.798;2023-04-29T09:47:03;100148.78;;;20.78;62.61
63395;BME280;49531;-34.520;150.798;2023-04-29T09:49:35;100130.88;;;20.72;62.77
63395;BME280;49531;-34.520;150.798;2023-04-29T09:52:06;100137.41;;;20.71;62.84
63395;BME280;49531;-34.520;150.798;2023-04-29T09:54:35;100126.81;;;20.69;62.70
63395;BME280;49531;-34.520;150.798;2023-04-29T09:57:04;100136.59;;;20.70;62.79
63395;BME280;49531;-34.520;150.798;2023-04-29T09:59:33;100141.75;;;20.61;63.07
63395;BME280;49531;-34.520;150.798;2023-04-29T10:02:06;100147.72;;;20.63;63.00
63395;BME280;49531;-34.520;150.798;2023-04-29T10:04:34;100147.19;;;20.67;63.17
63395;BME280;49531;-34.520;150.798;2023-04-29T10:07:22;100150.19;;;20.60;63.18
63395;BME280;49531;-34.520;150.798;2023-04-29T10:09:52;100144.47;;;20.56;63.03
63395;BME280;49531;-34.520;150.798;2023-04-29T10:12:20;100135.25;;;20.57;62.91
63395;BME280;49531;-34.520;150.798;2023-04-29T10:15:01;100155.06;;;20.58;62.80
63395;BME280;49531;-34.520;150.798;2023-04-29T10:17:45;100149.34;;;20.64;62.93
63395;BME280;49531;-34.520;150.798;2023-04-29T10:20:21;100158.03;;;20.67;62.60
63395;BME280;49531;-34.520;150.798;2023-04-29T10:22:51;100159.66;;;20.68;62.64
63395;BME280;49531;-34.520;150.798;2023-04-29T10:25:21;100155.31;;;20.67;62.47
63395;BME280;49531;-34.520;150.798;2023-04-29T10:27:49;100161.28;;;20.69;62.46
63395;BME280;49531;-34.520;150.798;2023-04-29T10:30:19;100160.47;;;20.68;62.68
63395;BME280;49531;-34.520;150.798;2023-04-29T10:32:48;100154.78;;;20.59;62.63
63395;BME280;49531;-34.520;150.798;2023-04-29T10:35:16;100151.53;;;20.57;62.75
63395;BME280;49531;-34.520;150.798;2023-04-29T10:37:46;100148.00;;;20.57;62.51
63395;BME280;49531;-34.520;150.798;2023-04-29T10:40:17;100159.13;;;20.55;62.74
63395;BME280;49531;-34.520;150.798;2023-04-29T10:42:49;100153.16;;;20.53;62.69
63395;BME280;49531;-34.520;150.798;2023-04-29T10:45:28;100165.09;;;20.62;62.71
63395;BME280;49531;-34.520;150.798;2023-04-29T10:48:16;100165.66;;;20.59;62.44
63395;BME280;49531;-34.520;150.798;2023-04-29T10:51:02;100159.94;;;20.61;62.33
63395;BME280;49531;-34.520;150.798;2023-04-29T10:53:29;100156.69;;;20.59;62.31
63395;BME280;49531;-34.520;150.798;2023-04-29T10:56:02;100155.06;;;20.63;62.43
63395;BME280;49531;-34.520;150.798;2023-04-29T10:58:41;100136.88;;;20.63;62.52
63395;BME280;49531;-34.520;150.798;2023-04-29T11:01:11;100142.84;;;20.60;62.45
63395;BME280;49531;-34.520;150.798;2023-04-29T11:03:49;100145.84;;;20.59;62.55
63395;BME280;49531;-34.520;150.798;2023-04-29T11:06:23;100135.25;;;20.57;62.51
63395;BME280;49531;-34.520;150.798;2023-04-29T11:09:13;100127.94;;;20.58;62.42
63395;BME280;49531;-34.520;150.798;2023-04-29T11:11:43;100124.94;;;20.59;62.34
63395;BME280;49531;-34.520;150.798;2023-04-29T11:14:13;100105.69;;;20.56;62.32
63395;BME280;49531;-34.520;150.798;2023-04-29T11:16:52;100113.28;;;20.59;62.24
63395;BME280;49531;-34.520;150.798;2023-04-29T11:19:20;100121.97;;;20.61;62.32
63395;BME280;49531;-34.520;150.798;2023-04-29T11:22:03;100117.34;;;20.51;62.45
63395;BME280;49531;-34.520;150.798;2023-04-29T11:24:35;100118.72;;;20.49;62.43
63395;BME280;49531;-34.520;150.798;2023-04-29T11:27:02;100121.69;;;20.52;62.57
63395;BME280;49531;-34.520;150.798;2023-04-29T11:29:32;100107.59;;;20.45;62.30
63395;BME280;49531;-34.520;150.798;2023-04-29T11:32:00;100105.72;;;20.46;62.64
63395;BME280;49531;-34.520;150.798;2023-04-29T11:34:28;100112.19;;;20.55;62.39
63395;BME280;49531;-34.520;150.798;2023-04-29T11:36:55;100118.72;;;20.54;62.24
63395;BME280;49531;-34.520;150.798;2023-04-29T11:39:22;100117.91;;;20.48;62.41
63395;BME280;49531;-34.520;150.798;2023-04-29T11:41:50;100113.84;;;20.46;62.67
63395;BME280;49531;-34.520;150.798;2023-04-29T11:44:21;100124.16;;;20.49;62.55
63395;BME280;49531;-34.520;150.798;2023-04-29T11:46:48;100111.66;;;20.48;62.51
63395;BME280;49531;-34.520;150.798;2023-04-29T11:49:15;100110.84;;;20.47;62.59
63395;BME280;49531;-34.520;150.798;2023-04-29T11:51:43;100105.97;;;20.49;62.29
63395;BME280;49531;-34.520;150.798;2023-04-29T11:54:11;100104.06;;;20.50;62.42
63395;BME280;49531;-34.520;150.798;2023-04-29T11:56:38;100096.75;;;20.45;62.85
63395;BME280;49531;-34.520;150.798;2023-04-29T11:59:06;100103.25;;;20.49;62.58
63395;BME280;49531;-34.520;150.798;2023-04-29T12:01:34;100111.41;;;20.49;62.64
63395;BME280;49531;-34.520;150.798;2023-04-29T12:04:01;100110.31;;;20.50;62.56
63395;BME280;49531;-34.520;150.798;2023-04-29T12:06:29;100109.75;;;20.53;62.54
63395;BME280;49531;-34.520;150.798;2023-04-29T12:08:58;100101.09;;;20.46;62.61
63395;BME280;49531;-34.520;150.798;2023-04-29T12:11:26;100113.03;;;20.50;62.55
63395;BME280;49531;-34.520;150.798;2023-04-29T12:13:54;100094.06;;;20.40;62.59
63395;BME280;49531;-34.520;150.798;2023-04-29T12:16:22;100103.81;;;20.46;62.60
63395;BME280;49531;-34.520;150.798;2023-04-29T12:18:51;100110.84;;;20.47;62.68
63395;BME280;49531;-34.520;150.798;2023-04-29T12:21:20;100099.47;;;20.40;62.68
63395;BME280;49531;-34.520;150.798;2023-04-29T12:23:48;100105.44;;;20.42;62.78
63395;BME280;49531;-34.520;150.798;2023-04-29T12:26:17;100110.31;;;20.40;62.82
63395;BME280;49531;-34.520;150.798;2023-04-29T12:28:47;100088.66;;;20.20;62.72
63395;BME280;49531;-34.520;150.798;2023-04-29T12:31:15;100095.41;;;20.33;62.57
63395;BME280;49531;-34.520;150.798;2023-04-29T12:33:43;100097.84;;;20.34;62.76